sensor_id;sensor_type;location;lat;lon;timestamp;P1;durP1;ratioP1;P2;durP2;ratioP2
43152;SDS011;28756;49.064;9.290;2022-12-07T00:01:43;7.53;;;5.30;;
43152;SDS011;28756;49.064;9.290;2022-12-07T00:04:15;6.93;;;5.15;;
43152;SDS011;28756;49.064;9.290;2022-12-07T00:06:50;12.02;;;6.72;;
43152;SDS011;28756;49.064;9.290;2022-12-07T00:09:17;9.00;;;6.60;;
43152;SDS011;28756;49.064;9.290;2022-12-07T00:11:44;7.82;;;5.93;;
43152;SDS011;28756;49.064;9.290;2022-12-07T00:14:15;9.23;;;6.65;;
43152;SDS011;28756;49.064;9.290;2022-12-07T00:16:48;14.82;;;6.53;;
43152;SDS011;28756;49.064;9.290;2022-12-07T00:19:15;8.90;;;6.40;;
43152;SDS011;28756;49.064;9.290;2022-12-07T00:21:42;8.98;;;6.40;;
43152;SDS011;28756;49.064;9.290;2022-12-07T00:24:11;9.73;;;6.80;;
43152;SDS011;28756;49.064;9.290;2022-12-07T00:26:44;9.13;;;7.13;;
43152;SDS011;28756;49.064;9.290;2022-12-07T00:29:19;8.00;;;5.93;;
43152;SDS011;28756;49.064;9.290;2022-12-07T00:31:53;9.55;;;6.68;;
43152;SDS011;28756;49.064;9.290;2022-12-07T00:34:19;8.98;;;6.32;;
43152;SDS011;28756;49.064;9.290;2022-12-07T00:36:46;8.85;;;5.85;;
43152;SDS011;28756;49.064;9.290;2022-12-07T00:39:15;9.00;;;5.97;;
43152;SDS011;28756;49.064;9.290;2022-12-07T00:41:44;6.75;;;4.97;;
43152;SDS011;28756;49.064;9.290;2022-12-07T00:44:18;6.70;;;5.18;;
43152;SDS011;28756;49.064;9.290;2022-12-07T00:46:46;8.30;;;5.53;;
43152;SDS011;28756;49.064;9.290;2022-12-07T00:49:15;6.47;;;5.15;;
43152;SDS011;28756;49.064;9.290;2022-12-07T00:51:47;5.93;;;4.72;;
43152;SDS011;28756;49.064;9.290;2022-12-07T00:54:14;6.20;;;4.55;;
43152;SDS011;28756;49.064;9.290;2022-12-07T00:56:40;7.20;;;5.07;;
43152;SDS011;28756;49.064;9.290;2022-12-07T00:59:10;6.10;;;4.75;;
43152;SDS011;28756;49.064;9.290;2022-12-07T01:01:39;6.18;;;4.80;;
43152;SDS011;28756;49.064;9.290;2022-12-07T01:04:05;7.82;;;5.65;;
43152;SDS011;28756;49.064;9.290;2022-12-07T01:06:43;9.05;;;6.20;;
43152;SDS011;28756;49.064;9.290;2022-12-07T01:09:29;8.93;;;6.18;;
43152;SDS011;28756;49.064;9.290;2022-12-07T01:12:03;7.38;;;5.40;;
43152;SDS011;28756;49.064;9.290;2022-12-07T01:14:41;10.32;;;6.85;;
43152;SDS011;28756;49.064;9.290;2022-12-07T01:17:19;7.60;;;5.88;;
43152;SDS011;28756;49.064;9.290;2022-12-07T01:19:54;8.68;;;6.05;;
43152;SDS011;28756;49.064;9.290;2022-12-07T01:22:30;7.78;;;5.80;;
43152;SDS011;28756;49.064;9.290;2022-12-07T01:24:56;7.20;;;5.45;;
43152;SDS011;28756;49.064;9.290;2022-12-07T01:27:22;8.70;;;5.88;;
43152;SDS011;28756;49.064;9.290;2022-12-07T01:29:48;8.55;;;5.75;;
43152;SDS011;28756;49.064;9.290;2022-12-07T01:32:15;9.68;;;6.43;;
43152;SDS011;28756;49.064;9.290;2022-12-07T01:34:41;9.02;;;5.90;;
43152;SDS011;28756;49.064;9.290;2022-12-07T01:37:07;7.68;;;5.47;;
43152;SDS011;28756;49.064;9.290;2022-12-07T01:39:35;7.53;;;5.50;;
43152;SDS011;28756;49.064;9.290;2022-12-07T01:42:11;7.93;;;6.05;;
43152;SDS011;28756;49.064;9.290;2022-12-07T01:47:58;8.48;;;5.85;;
43152;SDS011;28756;49.064;9.290;2022-12-07T01:50:27;7.15;;;5.20;;
43152;SDS011;28756;49.064;9.290;2022-12-07T01:52:57;9.15;;;6.30;;
43152;SDS011;28756;49.064;9.290;2022-12-07T01:55:26;8.70;;;5.68;;
43152;SDS011;28756;49.064;9.290;2022-12-07T01:57:55;7.07;;;5.25;;
43152;SDS011;28756;49.064;9.290;2022-12-07T02:00:24;9.30;;;6.50;;
43152;SDS011;28756;49.064;9.290;2022-12-07T02:02:57;7.03;;;5.43;;
43152;SDS011;28756;49.064;9.290;2022-12-07T02:05:41;7.70;;;5.35;;
43152;SDS011;28756;49.064;9.290;2022-12-07T02:08:14;9.27;;;5.85;;
43152;SDS011;28756;49.064;9.290;2022-12-07T02:10:41;6.80;;;4.68;;
43152;SDS011;28756;49.064;9.290;2022-12-07T02:25:16;7.70;;;5.15;;
43152;SDS011;28756;49.064;9.290;2022-12-07T02:31:32;8.27;;;5.60;;
43152;SDS011;28756;49.064;9.290;2022-12-07T02:34:12;9.63;;;6.78;;
43152;SDS011;28756;49.064;9.290;2022-12-07T02:43:12;9.15;;;6.10;;
43152;SDS011;28756;49.064;9.290;2022-12-07T02:45:54;8.25;;;5.97;;
43152;SDS011;28756;49.064;9.290;2022-12-07T02:48:26;9.05;;;6.70;;
43152;SDS011;28756;49.064;9.290;2022-12-07T02:50:55;11.07;;;7.13;;
43152;SDS011;28756;49.064;9.290;2022-12-07T02:56:07;9.48;;;6.97;;
43152;SDS011;28756;49.064;9.290;2022-12-07T03:11:46;7.35;;;5.45;;
43152;SDS011;28756;49.064;9.290;2022-12-07T03:14:32;10.40;;;7.22;;
43152;SDS011;28756;49.064;9.290;2022-12-07T03:17:14;9.52;;;6.40;;
43152;SDS011;28756;49.064;9.290;2022-12-07T03:19:54;7.78;;;5.80;;
43152;SDS011;28756;49.064;9.290;2022-12-07T03:22:25;10.30;;;6.57;;
43152;SDS011;28756;49.064;9.290;2022-12-07T03:25:01;9.88;;;6.93;;
43152;SDS011;28756;49.064;9.290;2022-12-07T03:27:58;11.40;;;7.65;;
43152;SDS011;28756;49.064;9.290;2022-12-07T03:30:39;9.35;;;6.25;;
43152;SDS011;28756;49.064;9.290;2022-12-07T03:33:30;9.00;;;6.60;;
43152;SDS011;28756;49.064;9.290;2022-12-07T03:36:21;9.13;;;6.30;;
43152;SDS011;28756;49.064;9.290;2022-12-07T03:42:11;9.02;;;6.85;;
43152;SDS011;28756;49.064;9.290;2022-12-07T03:44:37;10.00;;;7.60;;
43152;SDS011;28756;49.064;9.290;2022-12-07T03:50:02;10.52;;;7.47;;
43152;SDS011;28756;49.064;9.290;2022-12-07T03:52:39;8.85;;;6.43;;
43152;SDS011;28756;49.064;9.290;2022-12-07T03:57:50;9.95;;;7.05;;
43152;SDS011;28756;49.064;9.290;2022-12-07T04:00:41;8.07;;;6.47;;
43152;SDS011;28756;49.064;9.290;2022-12-07T04:03:20;9.43;;;7.18;;
43152;SDS011;28756;49.064;9.290;2022-12-07T04:06:17;8.57;;;6.40;;
43152;SDS011;28756;49.064;9.290;2022-12-07T04:08:49;10.07;;;7.35;;
43152;SDS011;28756;49.064;9.290;2022-12-07T04:11:25;10.23;;;7.70;;
43152;SDS011;28756;49.064;9.290;2022-12-07T04:13:51;12.35;;;6.80;;
43152;SDS011;28756;49.064;9.290;2022-12-07T04:16:35;9.45;;;7.10;;
43152;SDS011;28756;49.064;9.290;2022-12-07T04:19:01;9.98;;;6.90;;
43152;SDS011;28756;49.064;9.290;2022-12-07T04:21:26;8.60;;;5.80;;
43152;SDS011;28756;49.064;9.290;2022-12-07T04:23:52;9.27;;;7.03;;
43152;SDS011;28756;49.064;9.290;2022-12-07T04:26:18;8.35;;;5.90;;
43152;SDS011;28756;49.064;9.290;2022-12-07T04:28:51;9.43;;;6.40;;
43152;SDS011;28756;49.064;9.290;2022-12-07T04:31:19;7.00;;;5.80;;
43152;SDS011;28756;49.064;9.290;2022-12-07T04:34:01;7.05;;;5.53;;
43152;SDS011;28756;49.064;9.290;2022-12-07T04:36:33;7.47;;;5.28;;
43152;SDS011;28756;49.064;9.290;2022-12-07T04:39:02;8.60;;;5.93;;
43152;SDS011;28756;49.064;9.290;2022-12-07T04:41:33;8.32;;;6.07;;
43152;SDS011;28756;49.064;9.290;2022-12-07T04:44:05;9.55;;;6.78;;
43152;SDS011;28756;49.064;9.290;2022-12-07T04:46:32;9.43;;;6.80;;
43152;SDS011;28756;49.064;9.290;2022-12-07T04:48:58;7.93;;;6.10;;
43152;SDS011;28756;49.064;9.290;2022-12-07T04:51:25;10.02;;;7.28;;
43152;SDS011;28756;49.064;9.290;2022-12-07T04:53:58;7.18;;;5.38;;
43152;SDS011;28756;49.064;9.290;2022-12-07T04:56:30;11.55;;;7.60;;
43152;SDS011;28756;49.064;9.290;2022-12-07T04:58:56;7.88;;;6.03;;
43152;SDS011;28756;49.064;9.290;2022-12-07T05:01:22;9.10;;;5.82;;
43152;SDS011;28756;49.064;9.290;2022-12-07T05:03:48;8.13;;;5.68;;
43152;SDS011;28756;49.064;9.290;2022-12-07T05:06:15;9.52;;;7.10;;
43152;SDS011;28756;49.064;9.290;2022-12-07T05:08:41;9.27;;;6.47;;
43152;SDS011;28756;49.064;9.290;2022-12-07T05:11:11;11.73;;;7.53;;
43152;SDS011;28756;49.064;9.290;2022-12-07T05:14:03;12.38;;;7.97;;
43152;SDS011;28756;49.064;9.290;2022-12-07T05:16:44;10.07;;;7.53;;
43152;SDS011;28756;49.064;9.290;2022-12-07T05:19:13;10.45;;;7.60;;
43152;SDS011;28756;49.064;9.290;2022-12-07T05:21:39;13.38;;;7.93;;
43152;SDS011;28756;49.064;9.290;2022-12-07T05:24:06;11.23;;;7.90;;
43152;SDS011;28756;49.064;9.290;2022-12-07T05:26:32;11.73;;;7.32;;
43152;SDS011;28756;49.064;9.290;2022-12-07T05:28:59;8.77;;;6.85;;
43152;SDS011;28756;49.064;9.290;2022-12-07T05:31:25;12.77;;;7.32;;
43152;SDS011;28756;49.064;9.290;2022-12-07T05:33:55;9.43;;;6.82;;
43152;SDS011;28756;49.064;9.290;2022-12-07T05:36:21;11.85;;;7.82;;
43152;SDS011;28756;49.064;9.290;2022-12-07T05:38:47;8.45;;;6.85;;
43152;SDS011;28756;49.064;9.290;2022-12-07T05:41:17;12.65;;;8.07;;
43152;SDS011;28756;49.064;9.290;2022-12-07T05:44:02;10.10;;;7.50;;
43152;SDS011;28756;49.064;9.290;2022-12-07T05:46:29;11.95;;;7.43;;
43152;SDS011;28756;49.064;9.290;2022-12-07T05:48:55;10.40;;;7.15;;
43152;SDS011;28756;49.064;9.290;2022-12-07T05:51:21;9.88;;;6.63;;
43152;SDS011;28756;49.064;9.290;2022-12-07T05:53:47;11.38;;;8.30;;
43152;SDS011;28756;49.064;9.290;2022-12-07T05:56:13;9.27;;;6.85;;
43152;SDS011;28756;49.064;9.290;2022-12-07T05:58:39;10.35;;;7.68;;
43152;SDS011;28756;49.064;9.290;2022-12-07T06:01:23;10.50;;;7.82;;
43152;SDS011;28756;49.064;9.290;2022-12-07T06:03:49;11.82;;;7.70;;
43152;SDS011;28756;49.064;9.290;2022-12-07T06:06:15;10.88;;;7.13;;
43152;SDS011;28756;49.064;9.290;2022-12-07T06:08:41;9.55;;;7.28;;
43152;SDS011;28756;49.064;9.290;2022-12-07T06:11:07;9.38;;;6.57;;
43152;SDS011;28756;49.064;9.290;2022-12-07T06:13:51;11.15;;;7.05;;
43152;SDS011;28756;49.064;9.290;2022-12-07T06:16:17;9.07;;;6.47;;
43152;SDS011;28756;49.064;9.290;2022-12-07T06:18:43;12.88;;;7.40;;
43152;SDS011;28756;49.064;9.290;2022-12-07T06:21:09;11.05;;;8.10;;
43152;SDS011;28756;49.064;9.290;2022-12-07T06:23:35;12.63;;;9.07;;
43152;SDS011;28756;49.064;9.290;2022-12-07T06:26:00;11.10;;;7.88;;
43152;SDS011;28756;49.064;9.290;2022-12-07T06:28:26;8.95;;;6.88;;
43152;SDS011;28756;49.064;9.290;2022-12-07T06:30:58;11.90;;;8.32;;
43152;SDS011;28756;49.064;9.290;2022-12-07T06:33:25;11.95;;;8.55;;
43152;SDS011;28756;49.064;9.290;2022-12-07T06:35:52;11.45;;;8.27;;
43152;SDS011;28756;49.064;9.290;2022-12-07T06:38:18;11.48;;;7.95;;
43152;SDS011;28756;49.064;9.290;2022-12-07T06:40:44;11.73;;;7.95;;
43152;SDS011;28756;49.064;9.290;2022-12-07T06:43:10;9.63;;;7.10;;
43152;SDS011;28756;49.064;9.290;2022-12-07T06:45:35;11.18;;;8.30;;
43152;SDS011;28756;49.064;9.290;2022-12-07T06:48:01;23.67;;;14.95;;
43152;SDS011;28756;49.064;9.290;2022-12-07T06:50:27;15.93;;;11.50;;
43152;SDS011;28756;49.064;9.290;2022-12-07T06:52:53;13.80;;;9.32;;
43152;SDS011;28756;49.064;9.290;2022-12-07T06:55:19;13.20;;;8.93;;
43152;SDS011;28756;49.064;9.290;2022-12-07T06:57:54;13.15;;;8.82;;
43152;SDS011;28756;49.064;9.290;2022-12-07T07:00:39;12.05;;;8.50;;
43152;SDS011;28756;49.064;9.290;2022-12-07T07:03:11;11.02;;;7.88;;
43152;SDS011;28756;49.064;9.290;2022-12-07T07:05:39;10.73;;;7.57;;
43152;SDS011;28756;49.064;9.290;2022-12-07T07:08:06;10.60;;;7.47;;
43152;SDS011;28756;49.064;9.290;2022-12-07T07:10:32;10.10;;;7.30;;
43152;SDS011;28756;49.064;9.290;2022-12-07T07:13:06;12.00;;;7.28;;
43152;SDS011;28756;49.064;9.290;2022-12-07T07:15:40;8.05;;;6.03;;
43152;SDS011;28756;49.064;9.290;2022-12-07T07:18:21;9.88;;;7.65;;
43152;SDS011;28756;49.064;9.290;2022-12-07T07:21:07;9.13;;;6.65;;
43152;SDS011;28756;49.064;9.290;2022-12-07T07:23:40;10.57;;;7.82;;
43152;SDS011;28756;49.064;9.290;2022-12-07T07:26:12;12.02;;;7.70;;
43152;SDS011;28756;49.064;9.290;2022-12-07T07:28:43;12.57;;;8.85;;
43152;SDS011;28756;49.064;9.290;2022-12-07T07:34:27;16.85;;;11.05;;
43152;SDS011;28756;49.064;9.290;2022-12-07T07:37:09;19.90;;;12.38;;
43152;SDS011;28756;49.064;9.290;2022-12-07T07:40:15;22.80;;;13.70;;
43152;SDS011;28756;49.064;9.290;2022-12-07T07:43:01;15.95;;;10.88;;
43152;SDS011;28756;49.064;9.290;2022-12-07T07:45:52;29.75;;;17.30;;
43152;SDS011;28756;49.064;9.290;2022-12-07T07:48:22;17.73;;;12.32;;
43152;SDS011;28756;49.064;9.290;2022-12-07T07:51:07;15.27;;;10.93;;
43152;SDS011;28756;49.064;9.290;2022-12-07T07:54:20;12.75;;;9.32;;
43152;SDS011;28756;49.064;9.290;2022-12-07T07:56:52;11.55;;;8.00;;
43152;SDS011;28756;49.064;9.290;2022-12-07T07:59:18;11.20;;;7.88;;
43152;SDS011;28756;49.064;9.290;2022-12-07T08:01:43;10.85;;;8.20;;
43152;SDS011;28756;49.064;9.290;2022-12-07T08:04:09;13.38;;;9.80;;
43152;SDS011;28756;49.064;9.290;2022-12-07T08:06:35;11.43;;;8.32;;
43152;SDS011;28756;49.064;9.290;2022-12-07T08:09:01;15.73;;;9.88;;
43152;SDS011;28756;49.064;9.290;2022-12-07T08:11:30;11.05;;;8.60;;
43152;SDS011;28756;49.064;9.290;2022-12-07T08:13:56;11.93;;;8.80;;
43152;SDS011;28756;49.064;9.290;2022-12-07T08:16:44;12.82;;;8.93;;
43152;SDS011;28756;49.064;9.290;2022-12-07T08:19:20;15.82;;;9.23;;
43152;SDS011;28756;49.064;9.290;2022-12-07T08:21:59;14.60;;;9.40;;
43152;SDS011;28756;49.064;9.290;2022-12-07T08:24:27;10.82;;;8.02;;
43152;SDS011;28756;49.064;9.290;2022-12-07T08:30:22;9.75;;;7.32;;
43152;SDS011;28756;49.064;9.290;2022-12-07T08:32:48;12.15;;;8.13;;
43152;SDS011;28756;49.064;9.290;2022-12-07T08:35:14;11.10;;;7.07;;
43152;SDS011;28756;49.064;9.290;2022-12-07T08:37:41;9.80;;;7.60;;
43152;SDS011;28756;49.064;9.290;2022-12-07T08:40:07;12.82;;;8.88;;
43152;SDS011;28756;49.064;9.290;2022-12-07T08:42:42;13.07;;;8.77;;
43152;SDS011;28756;49.064;9.290;2022-12-07T08:45:10;11.35;;;8.18;;
43152;SDS011;28756;49.064;9.290;2022-12-07T08:47:54;10.60;;;7.82;;
43152;SDS011;28756;49.064;9.290;2022-12-07T08:50:47;9.85;;;6.70;;
43152;SDS011;28756;49.064;9.290;2022-12-07T08:53:13;9.77;;;7.00;;
43152;SDS011;28756;49.064;9.290;2022-12-07T08:55:45;9.93;;;7.15;;
43152;SDS011;28756;49.064;9.290;2022-12-07T08:58:15;11.07;;;7.25;;
43152;SDS011;28756;49.064;9.290;2022-12-07T09:04:00;13.73;;;8.02;;
43152;SDS011;28756;49.064;9.290;2022-12-07T09:07:02;11.35;;;7.18;;
43152;SDS011;28756;49.064;9.290;2022-12-07T09:09:58;9.52;;;7.00;;
43152;SDS011;28756;49.064;9.290;2022-12-07T09:12:59;9.38;;;7.07;;
43152;SDS011;28756;49.064;9.290;2022-12-07T09:16:19;8.52;;;6.05;;
43152;SDS011;28756;49.064;9.290;2022-12-07T09:19:04;8.68;;;5.88;;
43152;SDS011;28756;49.064;9.290;2022-12-07T09:21:50;8.82;;;6.22;;
43152;SDS011;28756;49.064;9.290;2022-12-07T09:24:57;7.10;;;5.13;;
43152;SDS011;28756;49.064;9.290;2022-12-07T09:27:42;8.20;;;5.93;;
43152;SDS011;28756;49.064;9.290;2022-12-07T09:30:21;7.75;;;5.47;;
43152;SDS011;28756;49.064;9.290;2022-12-07T09:33:21;14.55;;;6.40;;
43152;SDS011;28756;49.064;9.290;2022-12-07T09:35:58;9.82;;;6.45;;
43152;SDS011;28756;49.064;9.290;2022-12-07T09:43:38;8.25;;;5.75;;
43152;SDS011;28756;49.064;9.290;2022-12-07T09:49:18;10.15;;;6.35;;
43152;SDS011;28756;49.064;9.290;2022-12-07T09:52:28;13.18;;;5.82;;
43152;SDS011;28756;49.064;9.290;2022-12-07T09:55:18;7.88;;;5.63;;
43152;SDS011;28756;49.064;9.290;2022-12-07T09:57:58;7.15;;;5.60;;
43152;SDS011;28756;49.064;9.290;2022-12-07T10:00:32;8.20;;;6.10;;
43152;SDS011;28756;49.064;9.290;2022-12-07T10:03:01;7.13;;;5.15;;
43152;SDS011;28756;49.064;9.290;2022-12-07T10:05:49;7.75;;;5.00;;
43152;SDS011;28756;49.064;9.290;2022-12-07T10:08:22;8.82;;;5.40;;
43152;SDS011;28756;49.064;9.290;2022-12-07T10:10:56;9.52;;;5.40;;
43152;SDS011;28756;49.064;9.290;2022-12-07T10:13:35;7.43;;;5.35;;
43152;SDS011;28756;49.064;9.290;2022-12-07T10:19:22;7.80;;;5.32;;
43152;SDS011;28756;49.064;9.290;2022-12-07T10:22:12;7.43;;;4.95;;
43152;SDS011;28756;49.064;9.290;2022-12-07T10:24:56;8.18;;;5.45;;
43152;SDS011;28756;49.064;9.290;2022-12-07T10:27:43;8.48;;;5.53;;
43152;SDS011;28756;49.064;9.290;2022-12-07T10:30:12;7.28;;;5.43;;
43152;SDS011;28756;49.064;9.290;2022-12-07T10:32:40;9.48;;;5.60;;
43152;SDS011;28756;49.064;9.290;2022-12-07T10:35:23;8.05;;;5.95;;
43152;SDS011;28756;49.064;9.290;2022-12-07T10:37:55;9.55;;;4.95;;
43152;SDS011;28756;49.064;9.290;2022-12-07T10:43:28;7.10;;;4.57;;
43152;SDS011;28756;49.064;9.290;2022-12-07T10:50:00;5.97;;;4.47;;
43152;SDS011;28756;49.064;9.290;2022-12-07T10:59:17;9.07;;;5.00;;
43152;SDS011;28756;49.064;9.290;2022-12-07T11:08:05;8.10;;;4.85;;
43152;SDS011;28756;49.064;9.290;2022-12-07T11:10:57;6.45;;;4.53;;
43152;SDS011;28756;49.064;9.290;2022-12-07T11:13:53;8.60;;;5.35;;
43152;SDS011;28756;49.064;9.290;2022-12-07T11:26:17;10.20;;;6.20;;
43152;SDS011;28756;49.064;9.290;2022-12-07T11:29:15;9.27;;;5.43;;
43152;SDS011;28756;49.064;9.290;2022-12-07T11:31:56;8.27;;;6.25;;
43152;SDS011;28756;49.064;9.290;2022-12-07T11:37:45;9.63;;;6.25;;
43152;SDS011;28756;49.064;9.290;2022-12-07T11:40:17;9.77;;;6.20;;
43152;SDS011;28756;49.064;9.290;2022-12-07T11:42:55;10.25;;;6.95;;
43152;SDS011;28756;49.064;9.290;2022-12-07T11:45:46;9.48;;;6.28;;
43152;SDS011;28756;49.064;9.290;2022-12-07T11:48:30;9.82;;;6.68;;
43152;SDS011;28756;49.064;9.290;2022-12-07T11:51:03;11.48;;;6.82;;
43152;SDS011;28756;49.064;9.290;2022-12-07T11:53:33;9.77;;;6.45;;
43152;SDS011;28756;49.064;9.290;2022-12-07T11:56:17;10.15;;;6.70;;
43152;SDS011;28756;49.064;9.290;2022-12-07T11:58:57;8.93;;;6.47;;
43152;SDS011;28756;49.064;9.290;2022-12-07T12:01:53;10.50;;;6.35;;
43152;SDS011;28756;49.064;9.290;2022-12-07T12:04:51;9.40;;;6.13;;
43152;SDS011;28756;49.064;9.290;2022-12-07T12:07:46;9.25;;;6.45;;
43152;SDS011;28756;49.064;9.290;2022-12-07T12:16:35;9.80;;;7.05;;
43152;SDS011;28756;49.064;9.290;2022-12-07T12:19:38;10.75;;;7.03;;
43152;SDS011;28756;49.064;9.290;2022-12-07T12:22:47;9.20;;;6.63;;
43152;SDS011;28756;49.064;9.290;2022-12-07T12:25:48;13.55;;;7.10;;
43152;SDS011;28756;49.064;9.290;2022-12-07T12:31:28;11.52;;;7.10;;
43152;SDS011;28756;49.064;9.290;2022-12-07T12:36:56;11.73;;;7.68;;
43152;SDS011;28756;49.064;9.290;2022-12-07T12:39:23;12.30;;;8.30;;
43152;SDS011;28756;49.064;9.290;2022-12-07T12:46:55;9.80;;;7.53;;
43152;SDS011;28756;49.064;9.290;2022-12-07T12:49:44;11.05;;;8.10;;
43152;SDS011;28756;49.064;9.290;2022-12-07T12:55:27;12.07;;;7.82;;
43152;SDS011;28756;49.064;9.290;2022-12-07T13:00:43;12.15;;;7.75;;
43152;SDS011;28756;49.064;9.290;2022-12-07T13:03:27;11.52;;;7.80;;
43152;SDS011;28756;49.064;9.290;2022-12-07T13:08:51;11.05;;;7.45;;
43152;SDS011;28756;49.064;9.290;2022-12-07T13:11:31;10.40;;;7.82;;
43152;SDS011;28756;49.064;9.290;2022-12-07T13:17:10;10.45;;;6.97;;
43152;SDS011;28756;49.064;9.290;2022-12-07T13:19:55;10.73;;;7.18;;
43152;SDS011;28756;49.064;9.290;2022-12-07T13:25:05;8.07;;;6.00;;
43152;SDS011;28756;49.064;9.290;2022-12-07T13:27:38;10.07;;;6.97;;
43152;SDS011;28756;49.064;9.290;2022-12-07T13:30:19;10.60;;;7.07;;
43152;SDS011;28756;49.064;9.290;2022-12-07T13:33:19;10.05;;;6.85;;
43152;SDS011;28756;49.064;9.290;2022-12-07T13:35:39;10.30;;;7.32;;
43152;SDS011;28756;49.064;9.290;2022-12-07T13:38:13;11.32;;;6.90;;
43152;SDS011;28756;49.064;9.290;2022-12-07T13:41:12;10.70;;;6.90;;
43152;SDS011;28756;49.064;9.290;2022-12-07T13:44:24;8.07;;;6.10;;
43152;SDS011;28756;49.064;9.290;2022-12-07T13:49:38;8.73;;;6.85;;
43152;SDS011;28756;49.064;9.290;2022-12-07T13:52:14;11.50;;;7.65;;
43152;SDS011;28756;49.064;9.290;2022-12-07T13:54:48;11.60;;;7.40;;
43152;SDS011;28756;49.064;9.290;2022-12-07T13:57:25;11.68;;;6.88;;
43152;SDS011;28756;49.064;9.290;2022-12-07T13:59:55;9.65;;;7.22;;
43152;SDS011;28756;49.064;9.290;2022-12-07T14:02:29;9.43;;;7.20;;
43152;SDS011;28756;49.064;9.290;2022-12-07T14:07:54;12.05;;;8.18;;
43152;SDS011;28756;49.064;9.290;2022-12-07T14:10:33;13.55;;;7.75;;
43152;SDS011;28756;49.064;9.290;2022-12-07T14:13:02;10.60;;;7.90;;
43152;SDS011;28756;49.064;9.290;2022-12-07T14:16:00;11.05;;;7.80;;
43152;SDS011;28756;49.064;9.290;2022-12-07T14:18:48;10.20;;;7.25;;
43152;SDS011;28756;49.064;9.290;2022-12-07T14:21:19;11.07;;;7.63;;
43152;SDS011;28756;49.064;9.290;2022-12-07T14:26:45;10.38;;;6.93;;
43152;SDS011;28756;49.064;9.290;2022-12-07T14:29:19;13.32;;;7.32;;
43152;SDS011;28756;49.064;9.290;2022-12-07T14:31:59;11.48;;;7.72;;
43152;SDS011;28756;49.064;9.290;2022-12-07T14:35:00;11.88;;;7.10;;
43152;SDS011;28756;49.064;9.290;2022-12-07T14:37:36;11.50;;;6.88;;
43152;SDS011;28756;49.064;9.290;2022-12-07T14:40:03;10.52;;;7.43;;
43152;SDS011;28756;49.064;9.290;2022-12-07T14:42:30;12.88;;;7.72;;
43152;SDS011;28756;49.064;9.290;2022-12-07T14:44:58;11.55;;;8.18;;
43152;SDS011;28756;49.064;9.290;2022-12-07T14:47:24;12.30;;;7.68;;
43152;SDS011;28756;49.064;9.290;2022-12-07T14:49:51;13.77;;;8.77;;
43152;SDS011;28756;49.064;9.290;2022-12-07T14:52:19;10.48;;;8.00;;
43152;SDS011;28756;49.064;9.290;2022-12-07T14:54:52;12.02;;;7.97;;
43152;SDS011;28756;49.064;9.290;2022-12-07T14:57:18;11.80;;;7.82;;
43152;SDS011;28756;49.064;9.290;2022-12-07T14:59:44;13.05;;;9.07;;
43152;SDS011;28756;49.064;9.290;2022-12-07T15:02:11;12.25;;;8.63;;
43152;SDS011;28756;49.064;9.290;2022-12-07T15:04:39;12.60;;;8.38;;
43152;SDS011;28756;49.064;9.290;2022-12-07T15:07:08;13.93;;;8.82;;
43152;SDS011;28756;49.064;9.290;2022-12-07T15:09:41;13.00;;;8.82;;
43152;SDS011;28756;49.064;9.290;2022-12-07T15:12:07;13.15;;;8.85;;
43152;SDS011;28756;49.064;9.290;2022-12-07T15:14:33;14.95;;;8.98;;
43152;SDS011;28756;49.064;9.290;2022-12-07T15:16:59;14.85;;;9.43;;
43152;SDS011;28756;49.064;9.290;2022-12-07T15:19:27;14.75;;;9.38;;
43152;SDS011;28756;49.064;9.290;2022-12-07T15:21:53;14.95;;;10.48;;
43152;SDS011;28756;49.064;9.290;2022-12-07T15:24:19;15.15;;;10.90;;
43152;SDS011;28756;49.064;9.290;2022-12-07T15:26:45;16.58;;;10.13;;
43152;SDS011;28756;49.064;9.290;2022-12-07T15:29:11;13.25;;;9.55;;
43152;SDS011;28756;49.064;9.290;2022-12-07T15:31:39;14.23;;;9.70;;
43152;SDS011;28756;49.064;9.290;2022-12-07T15:34:05;15.10;;;9.90;;
43152;SDS011;28756;49.064;9.290;2022-12-07T15:36:32;12.88;;;9.27;;
43152;SDS011;28756;49.064;9.290;2022-12-07T15:38:59;15.50;;;9.32;;
43152;SDS011;28756;49.064;9.290;2022-12-07T15:41:25;17.80;;;9.60;;
43152;SDS011;28756;49.064;9.290;2022-12-07T15:43:51;14.00;;;8.50;;
43152;SDS011;28756;49.064;9.290;2022-12-07T15:46:36;15.05;;;8.90;;
43152;SDS011;28756;49.064;9.290;2022-12-07T15:49:06;13.18;;;7.93;;
43152;SDS011;28756;49.064;9.290;2022-12-07T15:51:41;13.32;;;8.50;;
43152;SDS011;28756;49.064;9.290;2022-12-07T15:54:11;15.30;;;9.15;;
43152;SDS011;28756;49.064;9.290;2022-12-07T15:56:57;16.55;;;9.20;;
43152;SDS011;28756;49.064;9.290;2022-12-07T15:59:22;16.98;;;9.38;;
43152;SDS011;28756;49.064;9.290;2022-12-07T16:01:50;14.10;;;9.80;;
43152;SDS011;28756;49.064;9.290;2022-12-07T16:04:16;13.43;;;9.10;;
43152;SDS011;28756;49.064;9.290;2022-12-07T16:06:42;11.88;;;8.63;;
43152;SDS011;28756;49.064;9.290;2022-12-07T16:09:07;13.07;;;8.65;;
43152;SDS011;28756;49.064;9.290;2022-12-07T16:11:33;13.65;;;9.43;;
43152;SDS011;28756;49.064;9.290;2022-12-07T16:13:59;14.77;;;10.25;;
43152;SDS011;28756;49.064;9.290;2022-12-07T16:16:25;16.35;;;10.50;;
43152;SDS011;28756;49.064;9.290;2022-12-07T16:18:52;19.42;;;11.40;;
43152;SDS011;28756;49.064;9.290;2022-12-07T16:21:19;17.02;;;10.65;;
43152;SDS011;28756;49.064;9.290;2022-12-07T16:23:45;14.57;;;10.48;;
43152;SDS011;28756;49.064;9.290;2022-12-07T16:26:15;15.05;;;10.18;;
43152;SDS011;28756;49.064;9.290;2022-12-07T16:28:44;16.02;;;10.20;;
43152;SDS011;28756;49.064;9.290;2022-12-07T16:31:11;12.32;;;8.55;;
43152;SDS011;28756;49.064;9.290;2022-12-07T16:33:42;14.70;;;9.57;;
43152;SDS011;28756;49.064;9.290;2022-12-07T16:36:10;12.25;;;8.50;;
43152;SDS011;28756;49.064;9.290;2022-12-07T16:38:38;13.95;;;9.48;;
43152;SDS011;28756;49.064;9.290;2022-12-07T16:41:07;14.93;;;10.18;;
43152;SDS011;28756;49.064;9.290;2022-12-07T16:43:33;15.73;;;10.55;;
43152;SDS011;28756;49.064;9.290;2022-12-07T16:46:00;14.90;;;10.15;;
43152;SDS011;28756;49.064;9.290;2022-12-07T16:48:26;13.95;;;9.25;;
43152;SDS011;28756;49.064;9.290;2022-12-07T16:50:52;12.35;;;8.50;;
43152;SDS011;28756;49.064;9.290;2022-12-07T16:53:21;11.88;;;8.32;;
43152;SDS011;28756;49.064;9.290;2022-12-07T16:55:49;10.95;;;7.57;;
43152;SDS011;28756;49.064;9.290;2022-12-07T16:58:16;12.32;;;8.57;;
43152;SDS011;28756;49.064;9.290;2022-12-07T17:00:43;12.23;;;8.43;;
43152;SDS011;28756;49.064;9.290;2022-12-07T17:03:09;14.57;;;10.32;;
43152;SDS011;28756;49.064;9.290;2022-12-07T17:05:43;13.00;;;8.85;;
43152;SDS011;28756;49.064;9.290;2022-12-07T17:08:10;12.10;;;8.40;;
43152;SDS011;28756;49.064;9.290;2022-12-07T17:10:38;14.68;;;9.85;;
43152;SDS011;28756;49.064;9.290;2022-12-07T17:13:07;14.93;;;9.75;;
43152;SDS011;28756;49.064;9.290;2022-12-07T17:15:56;12.93;;;8.10;;
43152;SDS011;28756;49.064;9.290;2022-12-07T17:18:26;12.27;;;8.88;;
43152;SDS011;28756;49.064;9.290;2022-12-07T17:20:54;14.02;;;9.38;;
43152;SDS011;28756;49.064;9.290;2022-12-07T17:23:20;17.67;;;11.48;;
43152;SDS011;28756;49.064;9.290;2022-12-07T17:25:46;14.18;;;10.55;;
43152;SDS011;28756;49.064;9.290;2022-12-07T17:28:12;19.17;;;11.68;;
43152;SDS011;28756;49.064;9.290;2022-12-07T17:30:38;15.60;;;11.05;;
43152;SDS011;28756;49.064;9.290;2022-12-07T17:33:04;18.85;;;12.25;;
43152;SDS011;28756;49.064;9.290;2022-12-07T17:35:30;15.63;;;10.48;;
43152;SDS011;28756;49.064;9.290;2022-12-07T17:37:55;17.88;;;12.48;;
43152;SDS011;28756;49.064;9.290;2022-12-07T17:40:21;18.80;;;11.98;;
43152;SDS011;28756;49.064;9.290;2022-12-07T17:42:47;17.67;;;11.63;;